Aviation Digital Data Service (ADDS)

Output produced by METARs form (0324 UTC 21 September 2017)
found at http://www.aviationweather.gov/adds/metars/
 
UATE 210300Z 07005MPS CAVOK 18/02 Q1016 R12/0///70 NOSIG RMK QFE760/1014
TAF UATE 202303Z 2100/2124 12006MPS CAVOK TX33/2109Z TN16/2102Z 
     BECMG 2106/2108 VRB02MPS
       
UATT 210300Z 14003MPS CAVOK 12/03 Q1020 R13/70D NOSIG RMK QFE745/0994
TAF UATT 202300Z 2100/2124 18005MPS 5000 FU NSC TX29/2110Z TN07/2124Z 
     FM210600 31008MPS 9999 NSC 
     FM211600 35005MPS 5000 FU SCT020
       
UAAA 210300Z VRB01MPS 9999 NSC 14/M02 Q1017 R05L/CLRD65 NOSIG
TAF UAAA 202300Z 2100/2124 35005MPS 9999 NSC TX26/2109Z TN08/2101Z 
     BECMG 2112/2113 18005MPS 
     TEMPO 2113/2118 3000 FU
       
UAAA 210300Z VRB01MPS 9999 NSC 14/M02 Q1017 R05L/CLRD65 NOSIG
TAF UAAA 202300Z 2100/2124 35005MPS 9999 NSC TX26/2109Z TN08/2101Z 
     BECMG 2112/2113 18005MPS 
     TEMPO 2113/2118 3000 FU
       
UAAH 210300Z 04004MPS CAVOK 17/02 Q1019 R23/0///60 NOSIG RMK QFE726/0968
TAF UAAH 210247Z 2103/2112 09006MPS CAVOK 
     TEMPO 2106/2112 20007MPS
       
UACC 210300Z 25006MPS CAVOK 16/07 Q1016 R22/0///70 NOSIG RMK QFE730/0974
TAF UACC 202300Z 2100/2124 26007MPS 9999 SCT040 BKN100 TX22/2110Z TN15/2101Z 
     TEMPO 2102/2112 30007G12MPS SCT030CB 
     BECMG 2115/2117 02006MPS
       
UACK 210300Z 31004MPS 280V340 CAVOK 14/09 Q1015 NOSIG RMK QFE737/0983
TAF UACK 210200Z 2103/2112 31005MPS 9999 SCT033 BKN100 
     TEMPO 2104/2112 26008G13MPS 5000 -SHRA BKN025CB
       
UACP 210300Z 27003MPS CAVOK 10/09 Q1014 R23/0/0060 NOSIG RMK QFE748/0998
TAF UACP 210206Z 2103/2112 28006MPS 9999 SCT030 
     BECMG 2106/2107 34006MPS BKN030CB 
     TEMPO 2106/2112 34006G11MPS -SHRA
       
UADD 210300Z 25002MPS 9999 NSC 13/00 Q1015 NOSIG RMK QFE705/0940
TAF UADD 210200Z 2103/2112 20005G10MPS 9999 NSC
       
UAII 210300Z 00000MPS CAVOK 19/06 Q1012 R10/0///70 NOSIG RMK QFE724/0965
TAF UAII 202300Z 2100/2124 12005MPS CAVOK TX33/2109Z TN15/2101Z 
     TEMPO 2100/2112 16005MPS 
     TEMPO 2112/2120 23005MPS
       
UAKK 210300Z 25006MPS CAVOK 17/07 Q1019 R23/0///70 NOSIG RMK QFE717/0956
TAF UAKK 202300Z 2100/2124 27008MPS 9999 SCT030 BKN100 TX25/2110Z TN03/2123Z 
     TEMPO 2100/2103 VRB02MPS 
     TEMPO 2104/2114 29011MPS 
     BECMG 2116/2118 VRB02MPS BKN030CB 
     TEMPO 2118/2124 4000 SHRA BR BKN015CB
       
UAOO 210300Z 06007MPS 020V080 CAVOK 17/M01 Q1016 R05/CLRD70 NOSIG RMK QFE750/1001
TAF UAOO 210155Z 2103/2112 04009MPS CAVOK 
     TEMPO 2107/2112 06015MPS
       
UARR 210300Z 36005MPS CAVOK 12/06 Q1021 R04/CLRD70 NOSIG RMK QFE762/1016
TAF UARR 210200Z 2103/2112 03005MPS CAVOK 
     TEMPO 2106/2112 04006G11MPS
       
UASK 210300Z 14007MPS 9999 SCT036CB BKN080 14/06 Q1017 R12/090060 NOSIG RMK QFE737/0983
TAF UASK 210204Z 2103/2112 14006G11MPS 9999 BKN030CB BKN100 
     TEMPO 2103/2109 VRB14MPS -TSRA SQ SCT006 BKN020CB
       
UASP 210300Z 27004MPS 9999 SCT040CB 17/09 Q1011 R21/29//60 NOSIG RMK QFE747/0996
TAF UASP 210200Z 2103/2112 29005MPS 5000 -SHRA BR BKN020CB OVC100 
     TEMPO 2103/2109 VRB17MPS 2100 -TSRA SQ SCT006
       
UASS 210300Z 24005MPS CAVOK 20/08 Q1014 NOSIG RMK QFE742/0989
TAF UASS 210200Z 2103/2112 27008G13MPS 9999 SCT030 BKN100 
     TEMPO 2106/2112 5000 -SHRA BKN030CB
       
UATE 210300Z 07005MPS CAVOK 18/02 Q1016 R12/0///70 NOSIG RMK QFE760/1014
TAF UATE 202303Z 2100/2124 12006MPS CAVOK TX33/2109Z TN16/2102Z 
     BECMG 2106/2108 VRB02MPS
       
UATG 210300Z 09003MPS CAVOK 16/08 Q1018 R14/CLRD70 NOSIG RMK QFE765/1021
TAF UATG 202301Z 2100/2124 10005MPS 9999 SCT033CB TX31/2111Z TN16/2101Z 
     BECMG 2108/2110 16007MPS 
     BECMG 2113/2115 VRB02MPS
       
UATT 210300Z 14003MPS CAVOK 12/03 Q1020 R13/70D NOSIG RMK QFE745/0994
TAF UATT 202300Z 2100/2124 18005MPS 5000 FU NSC TX29/2110Z TN07/2124Z 
     FM210600 31008MPS 9999 NSC 
     FM211600 35005MPS 5000 FU SCT020
       
UAUU 210300Z 32003MPS CAVOK 11/07 Q1019 R33/CLRD70 NOSIG RMK QFE748/0998
TAF UAUU 210200Z 2103/2112 34005MPS 9999 BKN020CB OVC100 
     TEMPO 2104/2112 34009MPS
       
UACC 210300Z 25006MPS CAVOK 16/07 Q1016 R22/0///70 NOSIG RMK QFE730/0974
TAF UACC 202300Z 2100/2124 26007MPS 9999 SCT040 BKN100 TX22/2110Z TN15/2101Z 
     TEMPO 2102/2112 30007G12MPS SCT030CB 
     BECMG 2115/2117 02006MPS
       
UATG 210300Z 09003MPS CAVOK 16/08 Q1018 R14/CLRD70 NOSIG RMK QFE765/1021
TAF UATG 202301Z 2100/2124 10005MPS 9999 SCT033CB TX31/2111Z TN16/2101Z 
     BECMG 2108/2110 16007MPS 
     BECMG 2113/2115 VRB02MPS
       
UAAH 210300Z 04004MPS CAVOK 17/02 Q1019 R23/0///60 NOSIG RMK QFE726/0968
TAF UAAH 210247Z 2103/2112 09006MPS CAVOK 
     TEMPO 2106/2112 20007MPS
       
UAKK 210300Z 25006MPS CAVOK 17/07 Q1019 R23/0///70 NOSIG RMK QFE717/0956
TAF UAKK 202300Z 2100/2124 27008MPS 9999 SCT030 BKN100 TX25/2110Z TN03/2123Z 
     TEMPO 2100/2103 VRB02MPS 
     TEMPO 2104/2114 29011MPS 
     BECMG 2116/2118 VRB02MPS BKN030CB 
     TEMPO 2118/2124 4000 SHRA BR BKN015CB
       
UAUU 210300Z 32003MPS CAVOK 11/07 Q1019 R33/CLRD70 NOSIG RMK QFE748/0998
TAF UAUU 210200Z 2103/2112 34005MPS 9999 BKN020CB OVC100 
     TEMPO 2104/2112 34009MPS
       
UASS 210300Z 24005MPS CAVOK 20/08 Q1014 NOSIG RMK QFE742/0989
TAF UASS 210200Z 2103/2112 27008G13MPS 9999 SCT030 BKN100 
     TEMPO 2106/2112 5000 -SHRA BKN030CB
       
UAII 210300Z 00000MPS CAVOK 19/06 Q1012 R10/0///70 NOSIG RMK QFE724/0965
TAF UAII 202300Z 2100/2124 12005MPS CAVOK TX33/2109Z TN15/2101Z 
     TEMPO 2100/2112 16005MPS 
     TEMPO 2112/2120 23005MPS
       
UARR 210300Z 36005MPS CAVOK 12/06 Q1021 R04/CLRD70 NOSIG RMK QFE762/1016
TAF UARR 210200Z 2103/2112 03005MPS CAVOK 
     TEMPO 2106/2112 04006G11MPS
       
UASK 210300Z 14007MPS 9999 SCT036CB BKN080 14/06 Q1017 R12/090060 NOSIG RMK QFE737/0983
TAF UASK 210204Z 2103/2112 14006G11MPS 9999 BKN030CB BKN100 
     TEMPO 2103/2109 VRB14MPS -TSRA SQ SCT006 BKN020CB